sensor_id;sensor_type;location;lat;lon;timestamp;P1;durP1;ratioP1;P2;durP2;ratioP2
68866;SDS011;56451;44.804;20.476;2024-02-14T00:01:21;12.90;;;6.75;;
68866;SDS011;56451;44.804;20.476;2024-02-14T00:04:07;12.05;;;6.55;;
68866;SDS011;56451;44.804;20.476;2024-02-14T00:06:37;14.63;;;7.65;;
68866;SDS011;56451;44.804;20.476;2024-02-14T00:09:23;12.15;;;6.78;;
68866;SDS011;56451;44.804;20.476;2024-02-14T00:11:50;11.63;;;6.00;;
68866;SDS011;56451;44.804;20.476;2024-02-14T00:14:37;14.80;;;6.75;;
68866;SDS011;56451;44.804;20.476;2024-02-14T00:17:27;17.25;;;7.50;;
68866;SDS011;56451;44.804;20.476;2024-02-14T00:20:13;13.00;;;6.63;;
68866;SDS011;56451;44.804;20.476;2024-02-14T00:22:49;27.20;;;8.93;;
68866;SDS011;56451;44.804;20.476;2024-02-14T00:25:15;18.43;;;9.17;;
68866;SDS011;56451;44.804;20.476;2024-02-14T00:27:48;15.60;;;7.90;;
68866;SDS011;56451;44.804;20.476;2024-02-14T00:30:15;13.60;;;7.10;;
68866;SDS011;56451;44.804;20.476;2024-02-14T00:33:10;13.23;;;7.50;;
68866;SDS011;56451;44.804;20.476;2024-02-14T00:35:56;17.15;;;8.25;;
68866;SDS011;56451;44.804;20.476;2024-02-14T00:38:42;11.10;;;6.80;;
68866;SDS011;56451;44.804;20.476;2024-02-14T00:41:08;16.52;;;8.20;;
68866;SDS011;56451;44.804;20.476;2024-02-14T00:43:36;19.90;;;8.75;;
68866;SDS011;56451;44.804;20.476;2024-02-14T00:46:02;21.02;;;9.48;;
68866;SDS011;56451;44.804;20.476;2024-02-14T00:48:28;16.40;;;8.43;;
68866;SDS011;56451;44.804;20.476;2024-02-14T00:50:58;16.88;;;9.05;;
68866;SDS011;56451;44.804;20.476;2024-02-14T00:53:43;14.52;;;8.20;;
68866;SDS011;56451;44.804;20.476;2024-02-14T00:56:10;14.82;;;8.27;;
68866;SDS011;56451;44.804;20.476;2024-02-14T00:58:41;16.20;;;8.27;;
68866;SDS011;56451;44.804;20.476;2024-02-14T01:01:07;16.37;;;8.60;;
68866;SDS011;56451;44.804;20.476;2024-02-14T01:03:53;33.28;;;12.57;;
68866;SDS011;56451;44.804;20.476;2024-02-14T01:06:42;16.33;;;8.75;;
68866;SDS011;56451;44.804;20.476;2024-02-14T01:09:28;20.92;;;9.50;;
68866;SDS011;56451;44.804;20.476;2024-02-14T01:12:14;12.80;;;7.07;;
68866;SDS011;56451;44.804;20.476;2024-02-14T01:14:40;15.77;;;8.60;;
68866;SDS011;56451;44.804;20.476;2024-02-14T01:17:29;18.52;;;8.65;;
68866;SDS011;56451;44.804;20.476;2024-02-14T01:19:56;14.32;;;7.47;;
68866;SDS011;56451;44.804;20.476;2024-02-14T01:22:43;14.40;;;7.38;;
68866;SDS011;56451;44.804;20.476;2024-02-14T01:25:31;13.98;;;7.65;;
68866;SDS011;56451;44.804;20.476;2024-02-14T01:28:17;16.70;;;8.67;;
68866;SDS011;56451;44.804;20.476;2024-02-14T01:31:03;16.23;;;7.93;;
68866;SDS011;56451;44.804;20.476;2024-02-14T01:33:29;15.05;;;7.65;;
68866;SDS011;56451;44.804;20.476;2024-02-14T01:36:15;13.35;;;7.68;;
68866;SDS011;56451;44.804;20.476;2024-02-14T01:38:42;21.20;;;9.07;;
68866;SDS011;56451;44.804;20.476;2024-02-14T01:41:19;16.00;;;7.50;;
68866;SDS011;56451;44.804;20.476;2024-02-14T01:44:05;14.38;;;7.60;;
68866;SDS011;56451;44.804;20.476;2024-02-14T01:46:32;16.15;;;8.23;;
68866;SDS011;56451;44.804;20.476;2024-02-14T01:48:59;15.77;;;7.47;;
68866;SDS011;56451;44.804;20.476;2024-02-14T01:51:25;13.85;;;7.70;;
68866;SDS011;56451;44.804;20.476;2024-02-14T01:53:51;15.57;;;7.20;;
68866;SDS011;56451;44.804;20.476;2024-02-14T01:56:19;15.57;;;7.30;;
68866;SDS011;56451;44.804;20.476;2024-02-14T01:59:06;16.15;;;8.80;;
68866;SDS011;56451;44.804;20.476;2024-02-14T02:01:33;13.88;;;7.15;;
68866;SDS011;56451;44.804;20.476;2024-02-14T02:03:59;14.98;;;7.35;;
68866;SDS011;56451;44.804;20.476;2024-02-14T02:06:26;16.80;;;7.77;;
68866;SDS011;56451;44.804;20.476;2024-02-14T02:08:53;24.33;;;8.65;;
68866;SDS011;56451;44.804;20.476;2024-02-14T02:11:45;21.92;;;9.25;;
68866;SDS011;56451;44.804;20.476;2024-02-14T02:14:34;13.02;;;7.40;;
68866;SDS011;56451;44.804;20.476;2024-02-14T02:17:20;14.27;;;7.68;;
68866;SDS011;56451;44.804;20.476;2024-02-14T02:20:26;17.80;;;7.93;;
68866;SDS011;56451;44.804;20.476;2024-02-14T02:23:12;14.85;;;7.25;;
68866;SDS011;56451;44.804;20.476;2024-02-14T02:25:44;11.88;;;7.03;;
68866;SDS011;56451;44.804;20.476;2024-02-14T02:28:29;15.75;;;7.30;;
68866;SDS011;56451;44.804;20.476;2024-02-14T02:31:15;15.30;;;7.53;;
68866;SDS011;56451;44.804;20.476;2024-02-14T02:34:02;20.17;;;8.23;;
68866;SDS011;56451;44.804;20.476;2024-02-14T02:36:28;14.18;;;7.85;;
68866;SDS011;56451;44.804;20.476;2024-02-14T02:39:15;13.77;;;7.15;;
68866;SDS011;56451;44.804;20.476;2024-02-14T02:42:01;16.55;;;7.47;;
68866;SDS011;56451;44.804;20.476;2024-02-14T02:44:57;11.95;;;7.05;;
68866;SDS011;56451;44.804;20.476;2024-02-14T02:47:46;11.10;;;6.47;;
68866;SDS011;56451;44.804;20.476;2024-02-14T02:50:33;13.45;;;6.72;;
68866;SDS011;56451;44.804;20.476;2024-02-14T02:53:19;16.15;;;9.30;;
68866;SDS011;56451;44.804;20.476;2024-02-14T02:56:05;13.15;;;7.05;;
68866;SDS011;56451;44.804;20.476;2024-02-14T02:58:32;15.88;;;8.05;;
68866;SDS011;56451;44.804;20.476;2024-02-14T03:00:59;14.80;;;7.13;;
68866;SDS011;56451;44.804;20.476;2024-02-14T03:03:45;13.63;;;7.13;;
68866;SDS011;56451;44.804;20.476;2024-02-14T03:06:30;14.57;;;7.03;;
68866;SDS011;56451;44.804;20.476;2024-02-14T03:09:36;11.90;;;7.07;;
68866;SDS011;56451;44.804;20.476;2024-02-14T03:12:44;11.93;;;7.00;;
68866;SDS011;56451;44.804;20.476;2024-02-14T03:15:32;12.37;;;6.80;;
68866;SDS011;56451;44.804;20.476;2024-02-14T03:17:59;12.90;;;7.00;;
68866;SDS011;56451;44.804;20.476;2024-02-14T03:20:24;13.00;;;7.15;;
68866;SDS011;56451;44.804;20.476;2024-02-14T03:22:50;12.48;;;7.25;;
68866;SDS011;56451;44.804;20.476;2024-02-14T03:25:17;13.70;;;7.40;;
68866;SDS011;56451;44.804;20.476;2024-02-14T03:27:52;11.48;;;6.05;;
68866;SDS011;56451;44.804;20.476;2024-02-14T03:30:19;11.45;;;7.05;;
68866;SDS011;56451;44.804;20.476;2024-02-14T03:32:46;13.05;;;8.00;;
68866;SDS011;56451;44.804;20.476;2024-02-14T03:35:31;10.60;;;6.80;;
68866;SDS011;56451;44.804;20.476;2024-02-14T03:38:24;14.80;;;6.63;;
68866;SDS011;56451;44.804;20.476;2024-02-14T03:41:13;14.27;;;7.05;;
68866;SDS011;56451;44.804;20.476;2024-02-14T03:43:59;12.40;;;7.22;;
68866;SDS011;56451;44.804;20.476;2024-02-14T03:46:27;12.90;;;6.85;;
68866;SDS011;56451;44.804;20.476;2024-02-14T03:48:54;13.80;;;6.85;;
68866;SDS011;56451;44.804;20.476;2024-02-14T03:51:22;11.83;;;6.57;;
68866;SDS011;56451;44.804;20.476;2024-02-14T03:53:49;12.65;;;5.53;;
68866;SDS011;56451;44.804;20.476;2024-02-14T03:56:16;11.65;;;5.40;;
68866;SDS011;56451;44.804;20.476;2024-02-14T03:58:42;10.73;;;5.68;;
68866;SDS011;56451;44.804;20.476;2024-02-14T04:01:08;13.63;;;6.50;;
68866;SDS011;56451;44.804;20.476;2024-02-14T04:03:54;17.40;;;6.93;;
68866;SDS011;56451;44.804;20.476;2024-02-14T04:06:41;12.32;;;5.60;;
68866;SDS011;56451;44.804;20.476;2024-02-14T04:09:27;10.07;;;5.90;;
68866;SDS011;56451;44.804;20.476;2024-02-14T04:11:52;9.15;;;5.82;;
68866;SDS011;56451;44.804;20.476;2024-02-14T04:14:18;10.90;;;5.90;;
68866;SDS011;56451;44.804;20.476;2024-02-14T04:16:47;11.18;;;5.60;;
68866;SDS011;56451;44.804;20.476;2024-02-14T04:19:13;11.13;;;5.75;;
68866;SDS011;56451;44.804;20.476;2024-02-14T04:21:39;9.63;;;5.67;;
68866;SDS011;56451;44.804;20.476;2024-02-14T04:24:05;8.07;;;5.25;;
68866;SDS011;56451;44.804;20.476;2024-02-14T04:26:33;8.75;;;4.57;;
68866;SDS011;56451;44.804;20.476;2024-02-14T04:29:00;9.27;;;4.70;;
68866;SDS011;56451;44.804;20.476;2024-02-14T04:31:26;9.80;;;5.40;;
68866;SDS011;56451;44.804;20.476;2024-02-14T04:34:01;10.70;;;5.90;;
68866;SDS011;56451;44.804;20.476;2024-02-14T04:36:27;8.95;;;4.90;;
68866;SDS011;56451;44.804;20.476;2024-02-14T04:38:56;10.63;;;5.60;;
68866;SDS011;56451;44.804;20.476;2024-02-14T04:41:22;13.45;;;5.97;;
68866;SDS011;56451;44.804;20.476;2024-02-14T04:43:49;12.00;;;5.32;;
68866;SDS011;56451;44.804;20.476;2024-02-14T04:46:15;10.85;;;5.65;;
68866;SDS011;56451;44.804;20.476;2024-02-14T04:49:01;12.85;;;5.78;;
68866;SDS011;56451;44.804;20.476;2024-02-14T04:51:30;9.57;;;5.50;;
68866;SDS011;56451;44.804;20.476;2024-02-14T04:53:59;9.48;;;4.95;;
68866;SDS011;56451;44.804;20.476;2024-02-14T04:56:26;9.55;;;5.40;;
68866;SDS011;56451;44.804;20.476;2024-02-14T04:58:55;11.75;;;5.35;;
68866;SDS011;56451;44.804;20.476;2024-02-14T05:01:21;10.23;;;5.30;;
68866;SDS011;56451;44.804;20.476;2024-02-14T05:03:47;10.70;;;5.13;;
68866;SDS011;56451;44.804;20.476;2024-02-14T05:06:15;13.20;;;6.05;;
68866;SDS011;56451;44.804;20.476;2024-02-14T05:08:41;11.43;;;5.40;;
68866;SDS011;56451;44.804;20.476;2024-02-14T05:11:07;11.35;;;5.90;;
68866;SDS011;56451;44.804;20.476;2024-02-14T05:13:33;8.20;;;5.10;;
68866;SDS011;56451;44.804;20.476;2024-02-14T05:16:19;9.25;;;5.40;;
68866;SDS011;56451;44.804;20.476;2024-02-14T05:19:05;9.82;;;5.07;;
68866;SDS011;56451;44.804;20.476;2024-02-14T05:21:50;10.00;;;4.80;;
68866;SDS011;56451;44.804;20.476;2024-02-14T05:24:16;12.57;;;5.15;;
68866;SDS011;56451;44.804;20.476;2024-02-14T05:26:52;9.82;;;5.55;;
68866;SDS011;56451;44.804;20.476;2024-02-14T05:29:18;10.23;;;5.00;;
68866;SDS011;56451;44.804;20.476;2024-02-14T05:31:46;10.00;;;5.63;;
68866;SDS011;56451;44.804;20.476;2024-02-14T05:34:14;11.37;;;5.77;;
68866;SDS011;56451;44.804;20.476;2024-02-14T05:36:40;9.63;;;5.43;;
68866;SDS011;56451;44.804;20.476;2024-02-14T05:39:08;8.32;;;5.10;;
68866;SDS011;56451;44.804;20.476;2024-02-14T05:41:34;9.38;;;5.25;;
68866;SDS011;56451;44.804;20.476;2024-02-14T05:44:00;10.63;;;5.37;;
68866;SDS011;56451;44.804;20.476;2024-02-14T05:46:26;7.47;;;4.75;;
68866;SDS011;56451;44.804;20.476;2024-02-14T05:48:53;10.80;;;4.82;;
68866;SDS011;56451;44.804;20.476;2024-02-14T05:51:39;8.05;;;4.80;;
68866;SDS011;56451;44.804;20.476;2024-02-14T05:54:25;8.67;;;5.13;;
68866;SDS011;56451;44.804;20.476;2024-02-14T05:56:51;8.43;;;4.68;;
68866;SDS011;56451;44.804;20.476;2024-02-14T05:59:17;11.07;;;5.28;;
68866;SDS011;56451;44.804;20.476;2024-02-14T06:01:43;8.15;;;4.93;;
68866;SDS011;56451;44.804;20.476;2024-02-14T06:04:09;9.13;;;4.83;;
68866;SDS011;56451;44.804;20.476;2024-02-14T06:06:35;9.32;;;5.18;;
68866;SDS011;56451;44.804;20.476;2024-02-14T06:09:01;9.45;;;5.35;;
68866;SDS011;56451;44.804;20.476;2024-02-14T06:11:28;12.13;;;5.28;;
68866;SDS011;56451;44.804;20.476;2024-02-14T06:13:54;8.30;;;4.47;;
68866;SDS011;56451;44.804;20.476;2024-02-14T06:16:40;9.88;;;4.80;;
68866;SDS011;56451;44.804;20.476;2024-02-14T06:19:25;7.40;;;4.18;;
68866;SDS011;56451;44.804;20.476;2024-02-14T06:22:10;10.07;;;4.88;;
68866;SDS011;56451;44.804;20.476;2024-02-14T06:24:36;10.75;;;5.32;;
68866;SDS011;56451;44.804;20.476;2024-02-14T06:27:02;14.43;;;5.90;;
68866;SDS011;56451;44.804;20.476;2024-02-14T06:29:29;9.75;;;5.63;;
68866;SDS011;56451;44.804;20.476;2024-02-14T06:31:54;10.15;;;5.15;;
68866;SDS011;56451;44.804;20.476;2024-02-14T06:34:20;12.43;;;5.03;;
68866;SDS011;56451;44.804;20.476;2024-02-14T06:36:46;9.48;;;5.40;;
68866;SDS011;56451;44.804;20.476;2024-02-14T06:39:13;12.02;;;5.43;;
68866;SDS011;56451;44.804;20.476;2024-02-14T06:41:39;11.27;;;5.35;;
68866;SDS011;56451;44.804;20.476;2024-02-14T06:44:05;13.87;;;5.77;;
68866;SDS011;56451;44.804;20.476;2024-02-14T06:46:32;9.85;;;5.13;;
68866;SDS011;56451;44.804;20.476;2024-02-14T06:49:01;8.15;;;5.13;;
68866;SDS011;56451;44.804;20.476;2024-02-14T06:51:31;7.78;;;4.53;;
68866;SDS011;56451;44.804;20.476;2024-02-14T06:54:17;8.77;;;3.83;;
68866;SDS011;56451;44.804;20.476;2024-02-14T06:57:05;9.73;;;6.00;;
68866;SDS011;56451;44.804;20.476;2024-02-14T06:59:50;10.15;;;5.15;;
68866;SDS011;56451;44.804;20.476;2024-02-14T07:02:16;10.55;;;5.45;;
68866;SDS011;56451;44.804;20.476;2024-02-14T07:04:42;9.18;;;4.75;;
68866;SDS011;56451;44.804;20.476;2024-02-14T07:07:08;12.40;;;5.17;;
68866;SDS011;56451;44.804;20.476;2024-02-14T07:09:34;10.68;;;5.03;;
68866;SDS011;56451;44.804;20.476;2024-02-14T07:12:04;13.35;;;5.28;;
68866;SDS011;56451;44.804;20.476;2024-02-14T07:14:31;11.90;;;5.53;;
68866;SDS011;56451;44.804;20.476;2024-02-14T07:16:57;8.97;;;5.67;;
68866;SDS011;56451;44.804;20.476;2024-02-14T07:19:22;10.73;;;4.75;;
68866;SDS011;56451;44.804;20.476;2024-02-14T07:21:48;9.50;;;5.43;;
68866;SDS011;56451;44.804;20.476;2024-02-14T07:24:14;12.63;;;5.83;;
68866;SDS011;56451;44.804;20.476;2024-02-14T07:26:40;13.52;;;5.45;;
68866;SDS011;56451;44.804;20.476;2024-02-14T07:29:26;10.10;;;5.53;;
68866;SDS011;56451;44.804;20.476;2024-02-14T07:32:12;12.80;;;6.35;;
68866;SDS011;56451;44.804;20.476;2024-02-14T07:34:38;12.53;;;6.20;;
68866;SDS011;56451;44.804;20.476;2024-02-14T07:37:05;11.85;;;6.75;;
68866;SDS011;56451;44.804;20.476;2024-02-14T07:39:31;12.45;;;7.80;;
68866;SDS011;56451;44.804;20.476;2024-02-14T07:41:57;15.82;;;7.57;;
68866;SDS011;56451;44.804;20.476;2024-02-14T07:44:23;16.83;;;8.13;;
68866;SDS011;56451;44.804;20.476;2024-02-14T07:46:49;14.27;;;7.65;;
68866;SDS011;56451;44.804;20.476;2024-02-14T07:49:15;14.23;;;7.78;;
68866;SDS011;56451;44.804;20.476;2024-02-14T07:51:41;14.95;;;8.10;;
68866;SDS011;56451;44.804;20.476;2024-02-14T07:54:07;16.00;;;8.37;;
68866;SDS011;56451;44.804;20.476;2024-02-14T07:56:33;17.98;;;9.30;;
68866;SDS011;56451;44.804;20.476;2024-02-14T07:58:58;15.68;;;8.45;;
68866;SDS011;56451;44.804;20.476;2024-02-14T08:01:25;16.35;;;7.20;;
68866;SDS011;56451;44.804;20.476;2024-02-14T08:03:51;15.15;;;8.18;;
68866;SDS011;56451;44.804;20.476;2024-02-14T08:06:37;17.13;;;8.25;;
68866;SDS011;56451;44.804;20.476;2024-02-14T08:09:03;14.65;;;7.88;;
68866;SDS011;56451;44.804;20.476;2024-02-14T08:11:32;11.00;;;6.97;;
68866;SDS011;56451;44.804;20.476;2024-02-14T08:13:58;15.60;;;7.32;;
68866;SDS011;56451;44.804;20.476;2024-02-14T08:16:25;19.17;;;7.95;;
68866;SDS011;56451;44.804;20.476;2024-02-14T08:18:51;14.77;;;7.97;;
68866;SDS011;56451;44.804;20.476;2024-02-14T08:21:27;15.17;;;8.40;;
68866;SDS011;56451;44.804;20.476;2024-02-14T08:23:53;10.27;;;7.43;;
68866;SDS011;56451;44.804;20.476;2024-02-14T08:26:23;14.05;;;7.47;;
68866;SDS011;56451;44.804;20.476;2024-02-14T08:28:49;16.60;;;7.20;;
68866;SDS011;56451;44.804;20.476;2024-02-14T08:31:15;10.98;;;7.20;;
68866;SDS011;56451;44.804;20.476;2024-02-14T08:33:41;15.53;;;7.50;;
68866;SDS011;56451;44.804;20.476;2024-02-14T08:36:08;14.30;;;7.70;;
68866;SDS011;56451;44.804;20.476;2024-02-14T08:38:34;13.02;;;7.75;;
68866;SDS011;56451;44.804;20.476;2024-02-14T08:41:04;10.52;;;7.35;;
68866;SDS011;56451;44.804;20.476;2024-02-14T08:43:31;9.97;;;6.83;;
68866;SDS011;56451;44.804;20.476;2024-02-14T08:46:17;13.65;;;7.90;;
68866;SDS011;56451;44.804;20.476;2024-02-14T08:49:03;15.60;;;7.32;;
68866;SDS011;56451;44.804;20.476;2024-02-14T08:51:34;12.43;;;7.28;;
68866;SDS011;56451;44.804;20.476;2024-02-14T08:54:00;14.32;;;7.70;;
68866;SDS011;56451;44.804;20.476;2024-02-14T08:56:33;12.20;;;7.00;;
68866;SDS011;56451;44.804;20.476;2024-02-14T08:59:19;12.60;;;7.68;;
68866;SDS011;56451;44.804;20.476;2024-02-14T09:01:46;19.05;;;8.57;;
68866;SDS011;56451;44.804;20.476;2024-02-14T09:04:12;13.40;;;8.23;;
68866;SDS011;56451;44.804;20.476;2024-02-14T09:06:38;12.93;;;8.32;;
68866;SDS011;56451;44.804;20.476;2024-02-14T09:09:06;16.80;;;9.30;;
68866;SDS011;56451;44.804;20.476;2024-02-14T09:11:35;12.50;;;7.43;;
68866;SDS011;56451;44.804;20.476;2024-02-14T09:14:02;15.35;;;8.23;;
68866;SDS011;56451;44.804;20.476;2024-02-14T09:16:34;14.70;;;7.82;;
68866;SDS011;56451;44.804;20.476;2024-02-14T09:19:20;15.82;;;8.30;;
68866;SDS011;56451;44.804;20.476;2024-02-14T09:21:46;15.77;;;8.10;;
68866;SDS011;56451;44.804;20.476;2024-02-14T09:24:13;16.80;;;9.15;;
68866;SDS011;56451;44.804;20.476;2024-02-14T09:26:39;12.90;;;8.52;;
68866;SDS011;56451;44.804;20.476;2024-02-14T09:29:05;16.42;;;9.27;;
68866;SDS011;56451;44.804;20.476;2024-02-14T09:31:31;12.25;;;8.13;;
68866;SDS011;56451;44.804;20.476;2024-02-14T09:33:57;14.20;;;8.18;;
68866;SDS011;56451;44.804;20.476;2024-02-14T09:36:23;14.18;;;8.82;;
68866;SDS011;56451;44.804;20.476;2024-02-14T09:38:51;14.98;;;9.07;;
68866;SDS011;56451;44.804;20.476;2024-02-14T09:41:22;15.75;;;8.13;;
68866;SDS011;56451;44.804;20.476;2024-02-14T09:43:52;15.10;;;8.98;;
68866;SDS011;56451;44.804;20.476;2024-02-14T09:46:37;16.27;;;8.63;;
68866;SDS011;56451;44.804;20.476;2024-02-14T09:49:24;14.68;;;8.20;;
68866;SDS011;56451;44.804;20.476;2024-02-14T09:52:11;12.10;;;7.70;;
68866;SDS011;56451;44.804;20.476;2024-02-14T09:54:38;10.23;;;6.70;;
68866;SDS011;56451;44.804;20.476;2024-02-14T09:57:04;13.05;;;7.22;;
68866;SDS011;56451;44.804;20.476;2024-02-14T09:59:32;14.15;;;7.70;;
68866;SDS011;56451;44.804;20.476;2024-02-14T10:01:58;16.42;;;7.95;;
68866;SDS011;56451;44.804;20.476;2024-02-14T10:04:24;15.83;;;7.60;;
68866;SDS011;56451;44.804;20.476;2024-02-14T10:06:51;14.48;;;7.15;;
68866;SDS011;56451;44.804;20.476;2024-02-14T10:09:20;11.00;;;6.15;;
68866;SDS011;56451;44.804;20.476;2024-02-14T10:11:48;10.57;;;6.22;;
68866;SDS011;56451;44.804;20.476;2024-02-14T10:14:14;8.88;;;5.53;;
68866;SDS011;56451;44.804;20.476;2024-02-14T10:16:40;11.10;;;6.20;;
68866;SDS011;56451;44.804;20.476;2024-02-14T10:19:14;11.15;;;6.75;;
68866;SDS011;56451;44.804;20.476;2024-02-14T10:21:43;12.23;;;6.07;;
68866;SDS011;56451;44.804;20.476;2024-02-14T10:24:20;11.40;;;6.60;;
68866;SDS011;56451;44.804;20.476;2024-02-14T10:26:46;9.98;;;6.28;;
68866;SDS011;56451;44.804;20.476;2024-02-14T10:29:12;11.47;;;5.80;;
68866;SDS011;56451;44.804;20.476;2024-02-14T10:31:40;9.57;;;5.10;;
68866;SDS011;56451;44.804;20.476;2024-02-14T10:34:24;9.50;;;5.72;;
68866;SDS011;56451;44.804;20.476;2024-02-14T10:36:53;11.88;;;6.28;;
68866;SDS011;56451;44.804;20.476;2024-02-14T10:39:22;13.05;;;6.63;;
68866;SDS011;56451;44.804;20.476;2024-02-14T10:41:51;11.17;;;6.27;;
68866;SDS011;56451;44.804;20.476;2024-02-14T10:44:17;13.27;;;6.93;;
68866;SDS011;56451;44.804;20.476;2024-02-14T10:46:44;15.82;;;6.90;;
68866;SDS011;56451;44.804;20.476;2024-02-14T10:49:12;12.00;;;7.18;;
68866;SDS011;56451;44.804;20.476;2024-02-14T10:51:41;15.60;;;7.63;;
68866;SDS011;56451;44.804;20.476;2024-02-14T10:54:10;12.13;;;6.90;;
68866;SDS011;56451;44.804;20.476;2024-02-14T10:56:47;15.55;;;6.70;;
68866;SDS011;56451;44.804;20.476;2024-02-14T10:59:24;11.25;;;6.60;;
68866;SDS011;56451;44.804;20.476;2024-02-14T11:01:51;12.43;;;6.20;;
68866;SDS011;56451;44.804;20.476;2024-02-14T11:04:18;11.38;;;6.13;;
68866;SDS011;56451;44.804;20.476;2024-02-14T11:06:44;10.73;;;6.03;;
68866;SDS011;56451;44.804;20.476;2024-02-14T11:09:14;8.80;;;5.43;;
68866;SDS011;56451;44.804;20.476;2024-02-14T11:11:42;10.60;;;6.55;;
68866;SDS011;56451;44.804;20.476;2024-02-14T11:14:15;10.02;;;5.88;;
68866;SDS011;56451;44.804;20.476;2024-02-14T11:16:44;11.15;;;6.57;;
68866;SDS011;56451;44.804;20.476;2024-02-14T11:19:32;12.80;;;5.83;;
68866;SDS011;56451;44.804;20.476;2024-02-14T11:22:09;9.63;;;5.55;;
68866;SDS011;56451;44.804;20.476;2024-02-14T11:24:39;13.50;;;6.15;;
68866;SDS011;56451;44.804;20.476;2024-02-14T11:27:09;10.02;;;6.03;;
68866;SDS011;56451;44.804;20.476;2024-02-14T11:29:38;8.23;;;5.25;;
68866;SDS011;56451;44.804;20.476;2024-02-14T11:32:27;9.77;;;5.70;;
68866;SDS011;56451;44.804;20.476;2024-02-14T11:34:54;11.85;;;6.07;;
68866;SDS011;56451;44.804;20.476;2024-02-14T11:37:27;10.30;;;5.70;;
68866;SDS011;56451;44.804;20.476;2024-02-14T11:40:16;11.98;;;5.25;;
68866;SDS011;56451;44.804;20.476;2024-02-14T11:42:45;10.85;;;6.35;;
68866;SDS011;56451;44.804;20.476;2024-02-14T11:45:13;9.20;;;6.10;;
68866;SDS011;56451;44.804;20.476;2024-02-14T11:47:39;11.63;;;5.70;;
68866;SDS011;56451;44.804;20.476;2024-02-14T11:50:05;11.20;;;5.95;;
68866;SDS011;56451;44.804;20.476;2024-02-14T11:52:52;9.70;;;6.05;;
68866;SDS011;56451;44.804;20.476;2024-02-14T11:55:19;11.43;;;6.28;;
68866;SDS011;56451;44.804;20.476;2024-02-14T11:57:53;9.83;;;5.60;;
68866;SDS011;56451;44.804;20.476;2024-02-14T12:00:19;11.20;;;5.82;;
68866;SDS011;56451;44.804;20.476;2024-02-14T12:02:48;9.93;;;5.75;;
68866;SDS011;56451;44.804;20.476;2024-02-14T12:05:23;10.68;;;5.75;;
68866;SDS011;56451;44.804;20.476;2024-02-14T12:07:50;10.80;;;5.60;;
68866;SDS011;56451;44.804;20.476;2024-02-14T12:10:15;8.80;;;4.88;;
68866;SDS011;56451;44.804;20.476;2024-02-14T12:12:46;9.35;;;5.50;;
68866;SDS011;56451;44.804;20.476;2024-02-14T12:15:13;8.57;;;4.85;;
68866;SDS011;56451;44.804;20.476;2024-02-14T12:17:41;9.15;;;5.05;;
68866;SDS011;56451;44.804;20.476;2024-02-14T12:20:10;8.27;;;4.90;;
68866;SDS011;56451;44.804;20.476;2024-02-14T12:22:39;8.13;;;4.80;;
68866;SDS011;56451;44.804;20.476;2024-02-14T12:25:06;12.68;;;5.82;;
68866;SDS011;56451;44.804;20.476;2024-02-14T12:27:36;11.48;;;5.78;;
68866;SDS011;56451;44.804;20.476;2024-02-14T12:30:04;9.05;;;5.60;;
68866;SDS011;56451;44.804;20.476;2024-02-14T12:32:32;11.55;;;5.30;;
68866;SDS011;56451;44.804;20.476;2024-02-14T12:34:58;8.57;;;4.85;;
68866;SDS011;56451;44.804;20.476;2024-02-14T12:37:25;11.40;;;5.63;;
68866;SDS011;56451;44.804;20.476;2024-02-14T12:39:51;10.77;;;5.70;;
68866;SDS011;56451;44.804;20.476;2024-02-14T12:42:18;11.80;;;6.40;;
68866;SDS011;56451;44.804;20.476;2024-02-14T12:45:04;12.65;;;6.60;;
68866;SDS011;56451;44.804;20.476;2024-02-14T12:47:30;12.13;;;6.38;;
68866;SDS011;56451;44.804;20.476;2024-02-14T12:49:58;12.63;;;6.07;;
68866;SDS011;56451;44.804;20.476;2024-02-14T12:52:25;13.00;;;6.75;;
68866;SDS011;56451;44.804;20.476;2024-02-14T12:54:51;12.67;;;6.97;;
68866;SDS011;56451;44.804;20.476;2024-02-14T12:57:17;11.40;;;6.25;;
68866;SDS011;56451;44.804;20.476;2024-02-14T12:59:43;12.32;;;6.70;;
68866;SDS011;56451;44.804;20.476;2024-02-14T13:02:11;14.32;;;6.65;;
68866;SDS011;56451;44.804;20.476;2024-02-14T13:04:37;10.13;;;6.90;;
68866;SDS011;56451;44.804;20.476;2024-02-14T13:07:03;11.15;;;6.70;;
68866;SDS011;56451;44.804;20.476;2024-02-14T13:09:29;12.50;;;6.50;;
68866;SDS011;56451;44.804;20.476;2024-02-14T13:11:54;9.80;;;6.23;;
68866;SDS011;56451;44.804;20.476;2024-02-14T13:14:20;10.48;;;6.30;;
68866;SDS011;56451;44.804;20.476;2024-02-14T13:16:46;10.60;;;6.43;;
68866;SDS011;56451;44.804;20.476;2024-02-14T13:19:12;13.82;;;7.05;;
68866;SDS011;56451;44.804;20.476;2024-02-14T13:21:38;13.80;;;6.60;;
68866;SDS011;56451;44.804;20.476;2024-02-14T13:24:05;12.10;;;6.63;;
68866;SDS011;56451;44.804;20.476;2024-02-14T13:26:31;10.15;;;6.70;;
68866;SDS011;56451;44.804;20.476;2024-02-14T13:28:57;10.13;;;6.37;;
68866;SDS011;56451;44.804;20.476;2024-02-14T13:31:23;11.32;;;6.35;;
68866;SDS011;56451;44.804;20.476;2024-02-14T13:33:48;12.20;;;6.55;;
68866;SDS011;56451;44.804;20.476;2024-02-14T13:36:14;11.63;;;6.95;;
68866;SDS011;56451;44.804;20.476;2024-02-14T13:38:42;10.93;;;6.80;;
68866;SDS011;56451;44.804;20.476;2024-02-14T13:41:12;12.65;;;6.15;;
68866;SDS011;56451;44.804;20.476;2024-02-14T13:43:38;11.65;;;6.40;;
68866;SDS011;56451;44.804;20.476;2024-02-14T13:46:04;11.38;;;6.20;;
68866;SDS011;56451;44.804;20.476;2024-02-14T13:48:31;11.23;;;6.78;;
68866;SDS011;56451;44.804;20.476;2024-02-14T13:50:57;9.60;;;6.07;;
68866;SDS011;56451;44.804;20.476;2024-02-14T13:53:23;11.23;;;6.40;;
68866;SDS011;56451;44.804;20.476;2024-02-14T13:55:49;11.55;;;6.03;;
68866;SDS011;56451;44.804;20.476;2024-02-14T13:58:17;12.68;;;6.68;;
68866;SDS011;56451;44.804;20.476;2024-02-14T14:00:43;13.05;;;6.60;;
68866;SDS011;56451;44.804;20.476;2024-02-14T14:03:09;10.65;;;6.25;;
68866;SDS011;56451;44.804;20.476;2024-02-14T14:05:35;10.93;;;6.53;;
68866;SDS011;56451;44.804;20.476;2024-02-14T14:08:01;10.53;;;6.27;;
68866;SDS011;56451;44.804;20.476;2024-02-14T14:10:27;13.65;;;7.00;;
68866;SDS011;56451;44.804;20.476;2024-02-14T14:12:53;12.23;;;6.38;;
68866;SDS011;56451;44.804;20.476;2024-02-14T14:15:19;11.30;;;7.20;;
68866;SDS011;56451;44.804;20.476;2024-02-14T14:17:45;9.95;;;6.05;;
68866;SDS011;56451;44.804;20.476;2024-02-14T14:20:11;8.85;;;6.28;;
68866;SDS011;56451;44.804;20.476;2024-02-14T14:22:37;12.65;;;6.72;;
68866;SDS011;56451;44.804;20.476;2024-02-14T14:25:04;12.73;;;6.73;;
68866;SDS011;56451;44.804;20.476;2024-02-14T14:27:33;10.82;;;6.43;;
68866;SDS011;56451;44.804;20.476;2024-02-14T14:29:59;10.48;;;6.35;;
68866;SDS011;56451;44.804;20.476;2024-02-14T14:32:25;13.57;;;6.72;;
68866;SDS011;56451;44.804;20.476;2024-02-14T14:34:51;10.77;;;6.70;;
68866;SDS011;56451;44.804;20.476;2024-02-14T14:37:17;11.85;;;6.50;;
68866;SDS011;56451;44.804;20.476;2024-02-14T14:39:43;13.13;;;7.15;;
68866;SDS011;56451;44.804;20.476;2024-02-14T14:42:10;13.17;;;6.80;;
68866;SDS011;56451;44.804;20.476;2024-02-14T14:44:36;10.82;;;6.85;;
68866;SDS011;56451;44.804;20.476;2024-02-14T14:47:02;9.38;;;5.68;;
68866;SDS011;56451;44.804;20.476;2024-02-14T14:49:28;10.27;;;6.22;;